Time;durP1;ratioP1;P1;durP2;ratioP2;P2;SDS_P1;SDS_P2;PMS_P1;PMS_P2;Temp;Humidity;BMP_temperature;BMP_pressure;BME280_temperature;BME280_humidity;BME280_pressure;Samples;Min_cycle;Max_cycle;Signal;HPM_P1;HPM_P2
2021/06/27 00:01:09;;;;;;;12.60;9.43;;;;;;;;;;5031394;28;20462;-68
2021/06/27 00:03:35;;;;;;;10.63;8.50;;;;;;;;;;5031666;28;20846;-68
2021/06/27 00:06:01;;;;;;;15.37;9.40;;;;;;;;;;5033072;28;20481;-68
2021/06/27 00:08:27;;;;;;;12.73;8.50;;;;;;;;;;5032087;28;20465;-68
2021/06/27 00:10:58;;;;;;;10.83;9.43;;;;;;;;;;5033246;28;20402;-68
2021/06/27 00:13:24;;;;;;;14.23;8.93;;;;;;;;;;5032036;28;20521;-68
2021/06/27 00:15:51;;;;;;;12.17;8.47;;;;;;;;;;5032995;28;20456;-68
2021/06/27 00:18:20;;;;;;;10.47;8.20;;;;;;;;;;5032074;28;20808;-68
2021/06/27 00:20:47;;;;;;;10.43;8.80;;;;;;;;;;5032979;28;20537;-68
2021/06/27 00:23:13;;;;;;;14.20;9.60;;;;;;;;;;5031887;28;20868;-68
2021/06/27 00:25:40;;;;;;;13.30;9.10;;;;;;;;;;5032869;28;20406;-68
2021/06/27 00:28:07;;;;;;;13.60;8.60;;;;;;;;;;5031571;28;20446;-68
2021/06/27 00:30:33;;;;;;;17.63;10.10;;;;;;;;;;5032909;28;20403;-68
2021/06/27 00:33:01;;;;;;;12.03;8.83;;;;;;;;;;5031780;28;20442;-67
2021/06/27 00:35:27;;;;;;;11.30;8.53;;;;;;;;;;5032938;28;20419;-69
2021/06/27 00:37:54;;;;;;;11.00;8.20;;;;;;;;;;5024221;28;20575;-69
2021/06/27 00:40:21;;;;;;;11.37;9.30;;;;;;;;;;5013031;28;20479;-67
2021/06/27 00:42:48;;;;;;;8.73;7.53;;;;;;;;;;5018220;28;20802;-68
2021/06/27 00:45:15;;;;;;;8.03;7.07;;;;;;;;;;5032847;28;20468;-68
2021/06/27 00:47:41;;;;;;;9.87;7.60;;;;;;;;;;5031952;28;20508;-67
2021/06/27 00:50:13;;;;;;;8.90;6.67;;;;;;;;;;5032583;28;20407;-68
2021/06/27 00:52:39;;;;;;;8.77;6.20;;;;;;;;;;5035554;28;20462;-69
2021/06/27 00:55:05;;;;;;;9.90;7.70;;;;;;;;;;5036417;28;20405;-69
2021/06/27 00:57:31;;;;;;;11.70;7.17;;;;;;;;;;5034345;28;20425;-68
2021/06/27 00:59:58;;;;;;;7.03;5.90;;;;;;;;;;5036255;28;20496;-68
2021/06/27 01:02:24;;;;;;;7.40;5.93;;;;;;;;;;5032868;28;20426;-68
2021/06/27 01:04:50;;;;;;;8.03;6.30;;;;;;;;;;5016836;28;20454;-68
2021/06/27 01:07:16;;;;;;;8.13;6.33;;;;;;;;;;5031100;28;20499;-68
2021/06/27 01:09:42;;;;;;;7.67;5.03;;;;;;;;;;5034129;28;20493;-68
2021/06/27 01:12:08;;;;;;;7.50;6.27;;;;;;;;;;5036194;28;20502;-68
2021/06/27 01:14:35;;;;;;;6.37;4.93;;;;;;;;;;5035245;28;20430;-68
2021/06/27 01:17:01;;;;;;;5.20;4.53;;;;;;;;;;5035977;28;20410;-68
2021/06/27 01:19:31;;;;;;;6.03;4.27;;;;;;;;;;5034675;28;20457;-68
2021/06/27 01:21:57;;;;;;;7.17;5.60;;;;;;;;;;5035950;28;20861;-68
2021/06/27 01:24:23;;;;;;;8.00;5.03;;;;;;;;;;5034862;28;20472;-68
2021/06/27 01:26:49;;;;;;;7.93;5.83;;;;;;;;;;5035929;28;20438;-68
2021/06/27 01:29:17;;;;;;;5.00;4.50;;;;;;;;;;5034869;28;20466;-68
2021/06/27 01:31:44;;;;;;;7.70;4.83;;;;;;;;;;5035726;28;20456;-68
2021/06/27 01:34:10;;;;;;;5.50;4.40;;;;;;;;;;5034891;28;20437;-68
2021/06/27 01:36:36;;;;;;;5.87;4.13;;;;;;;;;;5035803;28;20426;-68
2021/06/27 01:39:02;;;;;;;6.33;5.00;;;;;;;;;;5034526;28;20470;-68
2021/06/27 01:41:28;;;;;;;5.80;4.70;;;;;;;;;;5029377;28;20474;-68
2021/06/27 01:43:54;;;;;;;9.90;4.80;;;;;;;;;;5032954;28;20427;-68
2021/06/27 01:46:21;;;;;;;6.03;4.50;;;;;;;;;;5035394;28;20427;-68
2021/06/27 01:48:47;;;;;;;6.17;4.50;;;;;;;;;;5032421;28;20446;-68
2021/06/27 01:51:13;;;;;;;6.03;4.83;;;;;;;;;;5035288;28;20422;-67
2021/06/27 01:53:39;;;;;;;7.90;4.97;;;;;;;;;;5032380;28;20426;-68
2021/06/27 01:56:06;;;;;;;5.17;4.40;;;;;;;;;;5035542;28;20833;-68
2021/06/27 01:58:52;;;;;;;7.57;4.27;;;;;;;;;;5034072;28;20430;-68
2021/06/27 02:01:18;;;;;;;5.20;4.27;;;;;;;;;;5035079;28;20458;-68
2021/06/27 02:03:45;;;;;;;5.57;4.40;;;;;;;;;;5017535;28;20489;-68
2021/06/27 02:06:11;;;;;;;7.53;5.00;;;;;;;;;;5031469;28;20514;-67
2021/06/27 02:08:38;;;;;;;7.03;4.83;;;;;;;;;;5020940;28;20447;-68
2021/06/27 02:11:06;;;;;;;9.47;5.33;;;;;;;;;;5033375;28;20510;-68
2021/06/27 02:13:32;;;;;;;5.83;4.63;;;;;;;;;;5034612;28;20410;-67
2021/06/27 02:15:58;;;;;;;4.87;4.23;;;;;;;;;;5033783;28;20502;-68
2021/06/27 02:18:38;;;;;;;5.30;4.10;;;;;;;;;;5034829;28;20421;-68
2021/06/27 02:21:06;;;;;;;5.03;3.67;;;;;;;;;;5014937;28;20550;-68
2021/06/27 02:23:32;;;;;;;5.23;4.10;;;;;;;;;;5014958;28;20917;-68
2021/06/27 02:25:59;;;;;;;5.47;4.60;;;;;;;;;;5033656;28;21027;-68
2021/06/27 02:28:26;;;;;;;5.50;4.27;;;;;;;;;;5034978;28;20430;-68
2021/06/27 02:30:52;;;;;;;10.63;4.50;;;;;;;;;;5015964;28;20470;-68
2021/06/27 02:33:18;;;;;;;5.90;4.10;;;;;;;;;;5015115;28;20419;-68
2021/06/27 02:35:45;;;;;;;5.20;4.40;;;;;;;;;;5031437;28;20471;-68
2021/06/27 02:38:11;;;;;;;7.37;4.47;;;;;;;;;;5034410;28;20947;-69
2021/06/27 02:40:37;;;;;;;5.13;4.10;;;;;;;;;;5033681;28;20469;-68
2021/06/27 02:43:04;;;;;;;5.30;4.47;;;;;;;;;;5034418;28;20460;-68
2021/06/27 02:45:30;;;;;;;5.23;4.00;;;;;;;;;;5031864;28;20423;-68
2021/06/27 02:47:56;;;;;;;4.77;4.27;;;;;;;;;;5034578;28;20457;-68
2021/06/27 02:50:22;;;;;;;5.90;4.00;;;;;;;;;;5033374;28;20492;-68
2021/06/27 02:52:48;;;;;;;6.47;4.40;;;;;;;;;;5034284;28;20399;-68
2021/06/27 02:55:14;;;;;;;5.10;3.80;;;;;;;;;;5033457;28;20433;-68
2021/06/27 02:57:41;;;;;;;5.03;3.90;;;;;;;;;;5034174;28;20898;-68
2021/06/27 03:00:08;;;;;;;6.07;3.83;;;;;;;;;;5032341;28;20509;-68
2021/06/27 03:02:34;;;;;;;9.47;3.90;;;;;;;;;;5034466;28;20764;-68
2021/06/27 03:05:00;;;;;;;4.80;3.73;;;;;;;;;;5032920;28;20429;-68
2021/06/27 03:07:26;;;;;;;5.37;3.93;;;;;;;;;;5034105;28;20805;-68
2021/06/27 03:09:52;;;;;;;5.70;4.53;;;;;;;;;;5033056;28;20588;-68
2021/06/27 03:12:18;;;;;;;7.07;4.53;;;;;;;;;;5034115;28;20427;-68
2021/06/27 03:14:44;;;;;;;4.47;3.90;;;;;;;;;;5032563;28;20481;-68
2021/06/27 03:17:10;;;;;;;4.60;3.50;;;;;;;;;;5034039;28;20970;-68
2021/06/27 03:19:36;;;;;;;6.40;4.40;;;;;;;;;;5030861;28;20458;-68
2021/06/27 03:22:03;;;;;;;3.93;3.43;;;;;;;;;;5023273;28;20455;-68
2021/06/27 03:24:29;;;;;;;4.60;3.37;;;;;;;;;;5018144;28;20895;-68
2021/06/27 03:26:55;;;;;;;3.83;3.40;;;;;;;;;;5033986;28;20403;-68
2021/06/27 03:29:21;;;;;;;4.60;3.43;;;;;;;;;;5032400;28;20529;-68
2021/06/27 03:31:47;;;;;;;4.67;3.60;;;;;;;;;;5034183;28;20891;-68
2021/06/27 03:34:13;;;;;;;5.50;3.70;;;;;;;;;;5032395;28;20884;-68
2021/06/27 03:36:39;;;;;;;4.60;3.93;;;;;;;;;;5033542;28;20407;-68
2021/06/27 03:39:08;;;;;;;4.00;3.30;;;;;;;;;;5032293;28;20450;-69
2021/06/27 03:41:39;;;;;;;6.10;4.43;;;;;;;;;;5033969;28;20454;-68
2021/06/27 03:44:05;;;;;;;6.37;4.37;;;;;;;;;;5032644;28;20382;-69
2021/06/27 03:46:31;;;;;;;5.93;4.00;;;;;;;;;;5033394;28;20415;-68
2021/06/27 03:48:57;;;;;;;5.53;4.60;;;;;;;;;;5033441;28;20931;-68
2021/06/27 03:51:23;;;;;;;6.13;4.50;;;;;;;;;;5032193;28;20458;-68
2021/06/27 03:53:49;;;;;;;7.13;4.23;;;;;;;;;;5033517;28;20398;-68
2021/06/27 03:56:17;;;;;;;6.10;4.30;;;;;;;;;;5032115;28;20434;-68
2021/06/27 03:58:43;;;;;;;7.27;5.33;;;;;;;;;;5033029;28;20484;-68
2021/06/27 04:01:09;;;;;;;5.30;4.73;;;;;;;;;;5031450;28;20504;-68
2021/06/27 04:03:35;;;;;;;5.50;4.50;;;;;;;;;;5033161;28;20785;-68
2021/06/27 04:06:01;;;;;;;5.03;4.07;;;;;;;;;;5028430;28;20817;-68
2021/06/27 04:08:27;;;;;;;5.80;3.73;;;;;;;;;;5027054;28;20488;-68
2021/06/27 04:10:57;;;;;;;5.07;3.97;;;;;;;;;;5022326;28;20786;-68
2021/06/27 04:13:24;;;;;;;5.60;3.93;;;;;;;;;;5013340;28;20399;-68
2021/06/27 04:15:50;;;;;;;5.47;3.50;;;;;;;;;;5021452;28;20423;-68
2021/06/27 04:18:16;;;;;;;6.57;4.00;;;;;;;;;;5032986;28;20433;-68
2021/06/27 04:20:42;;;;;;;3.23;2.93;;;;;;;;;;5031158;28;20462;-68
2021/06/27 04:23:08;;;;;;;5.60;3.53;;;;;;;;;;5033330;28;20808;-68
2021/06/27 04:25:35;;;;;;;5.40;4.00;;;;;;;;;;5032697;28;20979;-68
2021/06/27 04:28:01;;;;;;;4.60;3.57;;;;;;;;;;5037393;28;20427;-68
2021/06/27 04:30:28;;;;;;;5.53;3.87;;;;;;;;;;5036452;28;20422;-68
2021/06/27 04:32:54;;;;;;;7.90;4.43;;;;;;;;;;5037070;28;20415;-68
2021/06/27 04:35:20;;;;;;;4.40;3.23;;;;;;;;;;5036178;28;20415;-68
2021/06/27 04:37:46;;;;;;;7.40;3.30;;;;;;;;;;5037121;28;20744;-69
2021/06/27 04:40:12;;;;;;;3.73;3.20;;;;;;;;;;5034801;28;20422;-68
2021/06/27 04:42:38;;;;;;;4.70;3.17;;;;;;;;;;5036861;28;20402;-67
2021/06/27 04:45:04;;;;;;;4.13;2.70;;;;;;;;;;5035312;28;20394;-68
2021/06/27 04:47:30;;;;;;;4.27;2.80;;;;;;;;;;5033564;28;20765;-68
2021/06/27 04:49:56;;;;;;;4.53;2.73;;;;;;;;;;5036191;28;20465;-68
2021/06/27 04:52:22;;;;;;;4.73;2.83;;;;;;;;;;5036323;28;20899;-68
2021/06/27 04:54:49;;;;;;;3.50;2.53;;;;;;;;;;5036840;28;20902;-68
2021/06/27 04:57:15;;;;;;;4.77;3.00;;;;;;;;;;5035680;28;20426;-68
2021/06/27 04:59:41;;;;;;;4.50;2.50;;;;;;;;;;5036576;28;20840;-69
2021/06/27 05:02:07;;;;;;;8.33;2.30;;;;;;;;;;5035521;28;20870;-68
2021/06/27 05:04:33;;;;;;;3.50;2.10;;;;;;;;;;5036432;28;20501;-68
2021/06/27 05:06:59;;;;;;;3.40;2.03;;;;;;;;;;5035238;28;20519;-68
2021/06/27 05:09:25;;;;;;;2.80;2.20;;;;;;;;;;5036222;28;20915;-68
2021/06/27 05:11:51;;;;;;;4.00;2.60;;;;;;;;;;5033490;28;20430;-69
2021/06/27 05:14:17;;;;;;;2.70;2.30;;;;;;;;;;5016438;28;20407;-68
2021/06/27 05:16:43;;;;;;;4.00;2.80;;;;;;;;;;5029232;28;20434;-68
2021/06/27 05:19:10;;;;;;;3.10;2.07;;;;;;;;;;5036404;28;20438;-68
2021/06/27 05:21:36;;;;;;;5.97;1.80;;;;;;;;;;5034907;28;20465;-69
2021/06/27 05:24:02;;;;;;;2.67;2.03;;;;;;;;;;5032775;28;21014;-68
2021/06/27 05:26:28;;;;;;;2.87;2.23;;;;;;;;;;5033657;28;20536;-65
2021/06/27 05:28:54;;;;;;;2.67;1.70;;;;;;;;;;5037995;28;20431;-66
2021/06/27 05:31:20;;;;;;;2.87;1.53;;;;;;;;;;5037785;28;20422;-65
2021/06/27 05:33:46;;;;;;;2.30;1.70;;;;;;;;;;5036394;28;20422;-65
2021/06/27 05:36:12;;;;;;;4.10;2.07;;;;;;;;;;5036471;28;20436;-66
2021/06/27 05:38:38;;;;;;;2.03;1.50;;;;;;;;;;5037410;28;21097;-65
2021/06/27 05:41:04;;;;;;;3.60;1.60;;;;;;;;;;5036074;28;20486;-65
2021/06/27 05:43:30;;;;;;;2.67;1.80;;;;;;;;;;5036878;28;20911;-66
2021/06/27 05:45:56;;;;;;;2.90;2.17;;;;;;;;;;5034578;28;20438;-67
2021/06/27 05:48:22;;;;;;;3.13;2.37;;;;;;;;;;5025337;28;20430;-66
2021/06/27 05:50:48;;;;;;;2.30;1.83;;;;;;;;;;5032768;28;20458;-66
2021/06/27 05:53:14;;;;;;;2.60;1.77;;;;;;;;;;5035493;28;20831;-67
2021/06/27 05:55:40;;;;;;;2.80;1.80;;;;;;;;;;5032530;28;20501;-66
2021/06/27 05:58:06;;;;;;;6.43;1.77;;;;;;;;;;5035437;28;20426;-66
2021/06/27 06:00:32;;;;;;;4.90;1.60;;;;;;;;;;5034427;28;20451;-66
2021/06/27 06:02:58;;;;;;;2.23;1.50;;;;;;;;;;5035386;28;20494;-67
2021/06/27 06:05:24;;;;;;;2.63;1.70;;;;;;;;;;5034517;28;20407;-67
2021/06/27 06:07:52;;;;;;;3.30;1.77;;;;;;;;;;5015469;28;20423;-67
2021/06/27 06:10:18;;;;;;;3.27;1.50;;;;;;;;;;5015436;28;20415;-67
2021/06/27 06:12:44;;;;;;;2.50;1.57;;;;;;;;;;5033970;28;20427;-67
2021/06/27 06:15:11;;;;;;;3.03;1.83;;;;;;;;;;5035101;28;20435;-67
2021/06/27 06:17:37;;;;;;;2.10;1.60;;;;;;;;;;5016759;28;20787;-67
2021/06/27 06:20:03;;;;;;;3.27;1.50;;;;;;;;;;5019533;28;20798;-67
2021/06/27 06:22:29;;;;;;;2.50;1.90;;;;;;;;;;5031816;28;20522;-67
2021/06/27 06:24:55;;;;;;;2.20;1.40;;;;;;;;;;5034921;28;20468;-67
2021/06/27 06:27:22;;;;;;;2.90;1.70;;;;;;;;;;5019238;28;20507;-67
2021/06/27 06:29:48;;;;;;;1.90;1.30;;;;;;;;;;5014992;28;20951;-67
2021/06/27 06:32:14;;;;;;;2.80;1.60;;;;;;;;;;5028301;28;20430;-67
2021/06/27 06:34:40;;;;;;;2.60;1.57;;;;;;;;;;5035063;28;20403;-67
2021/06/27 06:37:06;;;;;;;3.53;1.77;;;;;;;;;;5021665;28;20424;-67
2021/06/27 06:39:32;;;;;;;3.53;1.57;;;;;;;;;;5014764;28;20435;-67
2021/06/27 06:41:58;;;;;;;1.87;1.10;;;;;;;;;;5014849;28;20494;-67
2021/06/27 06:44:24;;;;;;;3.03;1.77;;;;;;;;;;5014480;28;20457;-67
2021/06/27 06:46:50;;;;;;;2.80;1.70;;;;;;;;;;5032578;28;20945;-67
2021/06/27 06:49:16;;;;;;;2.93;1.40;;;;;;;;;;5034021;28;20454;-67
2021/06/27 06:51:42;;;;;;;1.93;1.27;;;;;;;;;;5033538;28;20784;-67
2021/06/27 06:54:08;;;;;;;2.33;1.47;;;;;;;;;;5033410;28;20427;-67
2021/06/27 06:56:34;;;;;;;3.83;1.37;;;;;;;;;;5033500;28;20969;-66
2021/06/27 06:59:00;;;;;;;2.20;1.13;;;;;;;;;;5034253;28;20419;-67
2021/06/27 07:01:27;;;;;;;2.00;1.30;;;;;;;;;;5032946;28;20466;-67
2021/06/27 07:03:53;;;;;;;2.33;1.20;;;;;;;;;;5034302;28;20763;-67
2021/06/27 07:06:22;;;;;;;1.67;1.10;;;;;;;;;;5033361;28;20938;-67
2021/06/27 07:08:48;;;;;;;2.00;1.30;;;;;;;;;;5034416;28;20435;-67
2021/06/27 07:11:14;;;;;;;5.13;1.43;;;;;;;;;;5029659;28;20438;-67
2021/06/27 07:13:40;;;;;;;2.50;1.10;;;;;;;;;;5014149;28;20439;-67
2021/06/27 07:16:06;;;;;;;2.30;1.30;;;;;;;;;;5016966;28;20441;-67
2021/06/27 07:18:32;;;;;;;2.20;1.30;;;;;;;;;;5033926;28;20927;-67
2021/06/27 07:20:58;;;;;;;2.70;1.63;;;;;;;;;;5033828;28;20457;-67
2021/06/27 07:23:24;;;;;;;2.27;1.53;;;;;;;;;;5032873;28;20434;-67
2021/06/27 07:25:50;;;;;;;1.70;1.07;;;;;;;;;;5034239;28;20399;-67
2021/06/27 07:28:16;;;;;;;3.10;1.40;;;;;;;;;;5032596;28;20461;-67
2021/06/27 07:30:42;;;;;;;1.83;1.10;;;;;;;;;;5033730;28;20805;-67
2021/06/27 07:33:09;;;;;;;2.73;1.97;;;;;;;;;;5032530;28;20426;-67
2021/06/27 07:35:35;;;;;;;3.70;1.40;;;;;;;;;;5033990;28;20402;-67
2021/06/27 07:38:01;;;;;;;2.33;1.43;;;;;;;;;;5032492;28;21036;-67
2021/06/27 07:40:27;;;;;;;3.00;1.10;;;;;;;;;;5032292;28;20447;-67
2021/06/27 07:42:54;;;;;;;2.30;1.10;;;;;;;;;;5032284;28;21017;-67
2021/06/27 07:45:20;;;;;;;2.80;1.07;;;;;;;;;;5034096;28;20438;-67
2021/06/27 07:47:46;;;;;;;4.10;1.10;;;;;;;;;;5031449;28;20426;-67
2021/06/27 07:50:12;;;;;;;2.10;1.30;;;;;;;;;;5034015;28;20470;-67
2021/06/27 07:52:39;;;;;;;2.10;1.33;;;;;;;;;;5024196;28;20438;-67
2021/06/27 07:55:06;;;;;;;1.63;0.90;;;;;;;;;;5013931;28;20458;-66
2021/06/27 07:57:32;;;;;;;1.60;1.13;;;;;;;;;;5020413;28;20922;-67
2021/06/27 07:59:58;;;;;;;2.50;1.20;;;;;;;;;;5032458;28;20430;-67
2021/06/27 08:02:24;;;;;;;2.23;1.10;;;;;;;;;;5032244;28;20454;-67
2021/06/27 08:04:50;;;;;;;2.43;1.20;;;;;;;;;;5033412;28;20445;-67
2021/06/27 08:07:16;;;;;;;2.00;1.10;;;;;;;;;;5032339;28;20430;-67
2021/06/27 08:09:42;;;;;;;2.83;1.33;;;;;;;;;;5032830;28;20752;-66
2021/06/27 08:12:08;;;;;;;2.20;1.37;;;;;;;;;;5032272;28;20549;-66
2021/06/27 08:14:34;;;;;;;2.27;1.10;;;;;;;;;;5033197;28;20403;-66
2021/06/27 08:17:00;;;;;;;2.50;1.40;;;;;;;;;;5031770;28;20435;-66
2021/06/27 08:19:26;;;;;;;2.43;1.40;;;;;;;;;;5032290;28;20510;-66
2021/06/27 08:21:52;;;;;;;2.53;1.40;;;;;;;;;;5031828;28;21005;-66
2021/06/27 08:24:18;;;;;;;2.03;1.30;;;;;;;;;;5032987;28;20390;-66
2021/06/27 08:26:44;;;;;;;2.20;1.33;;;;;;;;;;5033140;28;20398;-66
2021/06/27 08:29:10;;;;;;;2.03;1.23;;;;;;;;;;5032305;28;20456;-67
2021/06/27 08:31:36;;;;;;;1.70;0.93;;;;;;;;;;5032992;28;20403;-67
2021/06/27 08:34:02;;;;;;;2.53;1.40;;;;;;;;;;5031932;28;20922;-67
2021/06/27 08:36:30;;;;;;;1.97;1.13;;;;;;;;;;5031632;28;20403;-67
2021/06/27 08:38:56;;;;;;;3.43;1.20;;;;;;;;;;5015378;28;20862;-67
2021/06/27 08:41:22;;;;;;;1.80;1.03;;;;;;;;;;5013452;28;20538;-67
2021/06/27 08:43:48;;;;;;;2.00;1.10;;;;;;;;;;5013510;28;20789;-67
2021/06/27 08:46:15;;;;;;;2.00;1.10;;;;;;;;;;5013390;28;20818;-67
2021/06/27 08:48:41;;;;;;;1.80;1.07;;;;;;;;;;5027114;28;20496;-67
2021/06/27 08:51:08;;;;;;;2.00;1.30;;;;;;;;;;5032768;28;20506;-67
2021/06/27 08:53:35;;;;;;;3.57;1.30;;;;;;;;;;5029940;28;20430;-67
2021/06/27 08:56:07;;;;;;;2.10;1.20;;;;;;;;;;5032971;28;20492;-67
2021/06/27 08:58:34;;;;;;;1.80;1.10;;;;;;;;;;5019153;28;20796;-67
2021/06/27 09:01:00;;;;;;;1.87;1.10;;;;;;;;;;5012950;28;20458;-67
2021/06/27 09:03:27;;;;;;;2.23;1.20;;;;;;;;;;5024191;28;20434;-66
2021/06/27 09:05:53;;;;;;;2.30;1.60;;;;;;;;;;5033009;28;20946;-66
2021/06/27 09:08:19;;;;;;;2.73;1.77;;;;;;;;;;5031633;28;20443;-67
2021/06/27 09:10:45;;;;;;;2.13;1.43;;;;;;;;;;5032709;28;20437;-67
2021/06/27 09:13:12;;;;;;;1.97;1.37;;;;;;;;;;5034501;28;20942;-67
2021/06/27 09:15:46;;;;;;;2.37;1.37;;;;;;;;;;5036300;28;20494;-67
2021/06/27 09:18:14;;;;;;;2.20;1.70;;;;;;;;;;5025993;28;20451;-67
2021/06/27 09:20:54;;;;;;;2.10;1.40;;;;;;;;;;5016181;28;20952;-67
2021/06/27 09:23:35;;;;;;;2.50;1.40;;;;;;;;;;5016571;28;20428;-67
2021/06/27 09:26:02;;;;;;;2.07;1.20;;;;;;;;;;5018937;28;20457;-67
2021/06/27 09:28:40;;;;;;;2.60;1.97;;;;;;;;;;5022963;28;20447;-67
2021/06/27 09:31:06;;;;;;;3.40;1.57;;;;;;;;;;5016115;28;20420;-67
2021/06/27 09:33:32;;;;;;;2.87;1.90;;;;;;;;;;5027121;28;20508;-67
2021/06/27 09:36:11;;;;;;;3.17;1.50;;;;;;;;;;5036032;28;20770;-67
2021/06/27 09:38:42;;;;;;;2.47;1.50;;;;;;;;;;5034460;28;20458;-67
2021/06/27 09:41:24;;;;;;;2.70;1.77;;;;;;;;;;5035376;28;20885;-67
2021/06/27 09:43:50;;;;;;;2.87;1.70;;;;;;;;;;5021648;28;20446;-67
2021/06/27 09:46:16;;;;;;;2.00;1.30;;;;;;;;;;5015612;28;20818;-67
2021/06/27 09:48:56;;;;;;;3.00;2.00;;;;;;;;;;5027563;28;20845;-67
2021/06/27 09:51:22;;;;;;;2.50;1.70;;;;;;;;;;5034157;28;20552;-67
2021/06/27 09:53:48;;;;;;;4.30;2.10;;;;;;;;;;5034085;28;20454;-66
2021/06/27 09:56:16;;;;;;;2.57;1.90;;;;;;;;;;5035678;28;20403;-67
2021/06/27 09:58:54;;;;;;;2.27;1.67;;;;;;;;;;5034537;28;20822;-67
2021/06/27 10:01:25;;;;;;;3.20;1.63;;;;;;;;;;5034143;28;20457;-67
2021/06/27 10:03:55;;;;;;;2.10;1.50;;;;;;;;;;5034682;28;20434;-67
2021/06/27 10:06:47;;;;;;;2.50;1.27;;;;;;;;;;5035415;28;20899;-67
2021/06/27 10:09:15;;;;;;;2.87;1.90;;;;;;;;;;5033960;28;20978;-67
2021/06/27 10:12:00;;;;;;;3.13;1.63;;;;;;;;;;5034938;28;20402;-67
2021/06/27 10:14:32;;;;;;;2.47;1.77;;;;;;;;;;5017169;28;20435;-67
2021/06/27 10:16:59;;;;;;;2.37;1.60;;;;;;;;;;5015279;28;20411;-67
2021/06/27 10:19:26;;;;;;;2.30;1.60;;;;;;;;;;5015032;28;20475;-67
2021/06/27 10:21:52;;;;;;;3.00;1.57;;;;;;;;;;5015047;28;20443;-67
2021/06/27 10:24:22;;;;;;;2.20;1.50;;;;;;;;;;5025892;28;20430;-66
2021/06/27 10:26:48;;;;;;;2.30;1.60;;;;;;;;;;5035026;28;20773;-67
2021/06/27 10:29:17;;;;;;;3.50;1.83;;;;;;;;;;5033834;28;20627;-67
2021/06/27 10:31:43;;;;;;;2.83;1.70;;;;;;;;;;5034968;28;20410;-67
2021/06/27 10:34:09;;;;;;;2.07;1.40;;;;;;;;;;5033836;28;20442;-67
2021/06/27 10:36:40;;;;;;;3.30;1.50;;;;;;;;;;5034664;28;20412;-67
2021/06/27 10:39:11;;;;;;;2.13;1.40;;;;;;;;;;5033379;28;20470;-67
2021/06/27 10:41:55;;;;;;;4.00;1.70;;;;;;;;;;5034462;28;20441;-67
2021/06/27 10:44:25;;;;;;;2.07;1.30;;;;;;;;;;5019231;28;20423;-67
2021/06/27 10:46:57;;;;;;;1.97;1.50;;;;;;;;;;5014795;28;20916;-67
2021/06/27 10:49:33;;;;;;;3.07;2.00;;;;;;;;;;5029295;28;20950;-67
2021/06/27 10:52:03;;;;;;;2.50;1.60;;;;;;;;;;5033176;28;20458;-67
2021/06/27 10:54:33;;;;;;;2.23;1.50;;;;;;;;;;5031915;28;20516;-67
2021/06/27 10:57:04;;;;;;;2.77;1.77;;;;;;;;;;5034532;28;20549;-67
2021/06/27 10:59:44;;;;;;;2.50;2.00;;;;;;;;;;5032324;28;20807;-67
2021/06/27 11:02:22;;;;;;;2.27;1.63;;;;;;;;;;5034188;28;20596;-67
2021/06/27 11:04:49;;;;;;;2.37;1.77;;;;;;;;;;5015742;28;20435;-67
2021/06/27 11:07:37;;;;;;;1.70;1.00;;;;;;;;;;5026441;28;20521;-67
2021/06/27 11:10:21;;;;;;;2.10;1.47;;;;;;;;;;5033518;28;20446;-67
2021/06/27 11:12:57;;;;;;;2.30;1.53;;;;;;;;;;5032253;28;20922;-67
2021/06/27 11:15:23;;;;;;;2.47;1.23;;;;;;;;;;5014128;28;20473;-67
2021/06/27 11:17:53;;;;;;;2.30;1.30;;;;;;;;;;5014508;28;20403;-67
2021/06/27 11:20:19;;;;;;;2.13;1.30;;;;;;;;;;5034031;28;20763;-67
2021/06/27 11:22:49;;;;;;;2.97;1.10;;;;;;;;;;5032653;28;20421;-67
2021/06/27 11:25:33;;;;;;;2.07;1.20;;;;;;;;;;5014037;28;20395;-67
2021/06/27 11:27:59;;;;;;;2.10;1.43;;;;;;;;;;5015455;28;20550;-67
2021/06/27 11:30:27;;;;;;;3.00;2.70;;;;;;;;;;5033788;28;20409;-67
2021/06/27 11:32:53;;;;;;;2.33;1.77;;;;;;;;;;5032669;28;20405;-67
2021/06/27 11:35:33;;;;;;;3.10;2.43;;;;;;;;;;5013767;28;20437;-67
2021/06/27 11:37:59;;;;;;;2.33;1.33;;;;;;;;;;5015506;28;20921;-67
2021/06/27 11:40:45;;;;;;;2.40;1.60;;;;;;;;;;5032990;28;20790;-67
2021/06/27 11:43:11;;;;;;;2.00;1.20;;;;;;;;;;5033336;28;20438;-67
2021/06/27 11:45:39;;;;;;;2.90;1.70;;;;;;;;;;5034323;28;20410;-67
2021/06/27 11:48:08;;;;;;;2.73;1.60;;;;;;;;;;5032694;28;20423;-66
2021/06/27 11:50:35;;;;;;;2.00;1.50;;;;;;;;;;5033598;28;20477;-66
2021/06/27 11:53:03;;;;;;;2.33;1.50;;;;;;;;;;5032626;28;20398;-66
2021/06/27 11:55:32;;;;;;;2.83;1.37;;;;;;;;;;5031461;28;20900;-66
2021/06/27 11:57:58;;;;;;;2.47;1.53;;;;;;;;;;5031175;28;20919;-66
2021/06/27 12:00:38;;;;;;;2.43;1.53;;;;;;;;;;5013972;28;20481;-66
2021/06/27 12:03:07;;;;;;;3.07;1.40;;;;;;;;;;5013941;28;20403;-66
2021/06/27 12:05:33;;;;;;;2.57;1.67;;;;;;;;;;5033572;28;20411;-66
2021/06/27 12:08:09;;;;;;;2.50;1.50;;;;;;;;;;5032377;28;20425;-66
2021/06/27 12:10:36;;;;;;;1.60;0.90;;;;;;;;;;5013764;28;20454;-66
2021/06/27 12:13:04;;;;;;;2.50;1.60;;;;;;;;;;5017647;28;20414;-66
2021/06/27 12:15:36;;;;;;;2.00;1.20;;;;;;;;;;5033201;28;20406;-66
2021/06/27 12:18:05;;;;;;;2.40;1.80;;;;;;;;;;5032388;28;20414;-67
2021/06/27 12:20:33;;;;;;;2.03;1.43;;;;;;;;;;5032829;28;20443;-66
2021/06/27 12:23:09;;;;;;;2.63;1.60;;;;;;;;;;5033175;28;20399;-66
2021/06/27 12:25:40;;;;;;;2.43;1.77;;;;;;;;;;5033468;28;20481;-66
2021/06/27 12:28:07;;;;;;;2.40;1.70;;;;;;;;;;5032417;28;20414;-67
2021/06/27 12:30:37;;;;;;;2.53;1.83;;;;;;;;;;5012162;28;20427;-66
2021/06/27 12:33:07;;;;;;;2.30;1.57;;;;;;;;;;5013702;28;20487;-66
2021/06/27 12:35:33;;;;;;;2.27;1.47;;;;;;;;;;5033131;28;20406;-66
2021/06/27 12:38:03;;;;;;;2.10;1.50;;;;;;;;;;5033175;28;20810;-66
2021/06/27 12:40:30;;;;;;;2.40;2.00;;;;;;;;;;5032105;28;20521;-66
2021/06/27 12:42:56;;;;;;;3.07;2.10;;;;;;;;;;5033341;28;20414;-66
2021/06/27 12:45:23;;;;;;;2.50;2.10;;;;;;;;;;5031641;28;20427;-66
2021/06/27 12:47:50;;;;;;;3.80;1.93;;;;;;;;;;5034776;28;20488;-66
2021/06/27 12:50:16;;;;;;;3.00;2.40;;;;;;;;;;5036174;28;20817;-68
2021/06/27 12:52:42;;;;;;;3.37;2.10;;;;;;;;;;5034425;28;20433;-67
2021/06/27 12:55:15;;;;;;;3.43;2.50;;;;;;;;;;5020332;28;20435;-67
2021/06/27 12:57:42;;;;;;;3.00;2.30;;;;;;;;;;5016988;28;20826;-67
2021/06/27 13:00:16;;;;;;;2.60;1.87;;;;;;;;;;5029965;28;20433;-67
2021/06/27 13:02:47;;;;;;;2.20;1.60;;;;;;;;;;5036203;28;20778;-67
2021/06/27 13:05:15;;;;;;;2.37;1.97;;;;;;;;;;5035860;28;20433;-67
2021/06/27 13:07:46;;;;;;;2.53;1.70;;;;;;;;;;5036406;28;20778;-67
2021/06/27 13:10:20;;;;;;;3.00;2.10;;;;;;;;;;5020434;28;20457;-67
2021/06/27 13:12:46;;;;;;;2.53;2.27;;;;;;;;;;5016501;28;20430;-67
2021/06/27 13:15:13;;;;;;;4.93;2.13;;;;;;;;;;5029002;28;20434;-67
2021/06/27 13:17:48;;;;;;;3.17;2.53;;;;;;;;;;5036419;28;20778;-67
2021/06/27 13:20:17;;;;;;;2.83;2.07;;;;;;;;;;5035124;28;20951;-67
2021/06/27 13:22:53;;;;;;;2.70;1.83;;;;;;;;;;5036307;28;20465;-67
2021/06/27 13:25:29;;;;;;;2.47;1.60;;;;;;;;;;5035235;28;20437;-67
2021/06/27 13:27:55;;;;;;;2.93;1.80;;;;;;;;;;5036276;28;20444;-67
2021/06/27 13:30:22;;;;;;;2.33;1.73;;;;;;;;;;5035038;28;20427;-68
2021/06/27 13:32:48;;;;;;;2.50;1.80;;;;;;;;;;5036212;28;20398;-67
2021/06/27 13:35:31;;;;;;;3.27;1.47;;;;;;;;;;5035119;28;20438;-68
2021/06/27 13:37:58;;;;;;;3.13;2.20;;;;;;;;;;5035701;28;20407;-67
2021/06/27 13:40:24;;;;;;;4.83;2.00;;;;;;;;;;5029434;28;20459;-68
2021/06/27 13:42:50;;;;;;;4.77;2.00;;;;;;;;;;5015997;28;20417;-67
2021/06/27 13:45:17;;;;;;;2.33;1.60;;;;;;;;;;5025609;28;20422;-67
2021/06/27 13:47:44;;;;;;;2.33;1.80;;;;;;;;;;5035805;28;20489;-67
2021/06/27 13:50:10;;;;;;;2.70;2.00;;;;;;;;;;5034576;28;20426;-67
2021/06/27 13:52:36;;;;;;;2.43;2.03;;;;;;;;;;5034657;28;20798;-67
2021/06/27 13:55:03;;;;;;;2.60;1.97;;;;;;;;;;5034688;28;20940;-67
2021/06/27 13:57:29;;;;;;;2.77;2.40;;;;;;;;;;5035459;28;20406;-67
2021/06/27 13:59:55;;;;;;;3.23;1.87;;;;;;;;;;5028834;28;20479;-68
2021/06/27 14:02:21;;;;;;;2.60;1.80;;;;;;;;;;5015798;28;20480;-67
2021/06/27 14:04:47;;;;;;;2.50;1.60;;;;;;;;;;5024658;28;20509;-67
2021/06/27 14:07:13;;;;;;;2.63;2.03;;;;;;;;;;5034042;28;20417;-67
2021/06/27 14:09:39;;;;;;;2.27;1.73;;;;;;;;;;5034455;28;20439;-67
2021/06/27 14:12:05;;;;;;;2.10;1.43;;;;;;;;;;5034980;28;20457;-68
2021/06/27 14:14:31;;;;;;;2.77;1.80;;;;;;;;;;5034213;28;20517;-67
2021/06/27 14:16:57;;;;;;;4.23;1.93;;;;;;;;;;5035111;28;20460;-67
2021/06/27 14:19:23;;;;;;;3.37;1.60;;;;;;;;;;5033556;28;20427;-67
2021/06/27 14:21:50;;;;;;;2.50;1.83;;;;;;;;;;5015237;28;20447;-67
2021/06/27 14:24:16;;;;;;;4.10;2.17;;;;;;;;;;5015081;28;20407;-69
2021/06/27 14:26:42;;;;;;;4.10;2.07;;;;;;;;;;5034764;28;20774;-68
2021/06/27 14:29:08;;;;;;;2.50;2.00;;;;;;;;;;5035127;28;20596;-67
2021/06/27 14:31:35;;;;;;;2.77;1.80;;;;;;;;;;5015572;28;20438;-67
2021/06/27 14:34:01;;;;;;;2.50;1.80;;;;;;;;;;5014992;28;20894;-67
2021/06/27 14:36:27;;;;;;;3.40;2.53;;;;;;;;;;5031813;28;20430;-67
2021/06/27 14:38:53;;;;;;;2.60;1.93;;;;;;;;;;5034518;28;20458;-67
2021/06/27 14:41:26;;;;;;;3.43;2.10;;;;;;;;;;5032700;28;20458;-68
2021/06/27 14:43:52;;;;;;;3.30;2.60;;;;;;;;;;5034852;28;20393;-67
2021/06/27 14:46:19;;;;;;;8.57;2.93;;;;;;;;;;5033665;28;20476;-67